Air Navigation Services of Czech Republic
Airport: LKMT Updated:  23.09.2017 23:09:04  UTC
 METAR LKMT 23.09. 23:00 ...
METAR LKMT 232300Z 20006KT 5000 BR OVC007 11/11 Q1019 NOSIG RMK REG QNH 1016=
 TAF LKMT 23.09. 23:00 ...
TAF LKMT 232300Z 2400/2506 VRB02KT 5000 BR BKN009      TEMPO 2400/2410 2000 RADZ BR OVC003      BECMG 2410/2412 9999 BKN030      TEMPO 2412/2416 33010KT 4000 -SHRA BKN020TCU      PROB30 TEMPO 2412/2416 TSRA BKN012CB      BECMG 2416/2419 2000 BR BKN009=